sensor_id;sensor_type;location;lat;lon;timestamp;P1;durP1;ratioP1;P2;durP2;ratioP2
7199;SDS011;3641;49.082;8.200;2023-04-24T00:00:14;3.42;;;1.60;;
7199;SDS011;3641;49.082;8.200;2023-04-24T00:02:43;6.82;;;3.10;;
7199;SDS011;3641;49.082;8.200;2023-04-24T00:05:12;3.17;;;1.90;;
7199;SDS011;3641;49.082;8.200;2023-04-24T00:07:41;4.25;;;2.00;;
7199;SDS011;3641;49.082;8.200;2023-04-24T00:10:07;4.28;;;1.98;;
7199;SDS011;3641;49.082;8.200;2023-04-24T00:12:35;4.07;;;1.85;;
7199;SDS011;3641;49.082;8.200;2023-04-24T00:15:02;6.30;;;1.95;;
7199;SDS011;3641;49.082;8.200;2023-04-24T00:17:29;2.67;;;1.80;;
7199;SDS011;3641;49.082;8.200;2023-04-24T00:19:55;4.80;;;1.65;;
7199;SDS011;3641;49.082;8.200;2023-04-24T00:22:24;5.30;;;1.77;;
7199;SDS011;3641;49.082;8.200;2023-04-24T00:24:52;3.78;;;1.33;;
7199;SDS011;3641;49.082;8.200;2023-04-24T00:27:18;4.47;;;1.75;;
7199;SDS011;3641;49.082;8.200;2023-04-24T00:29:45;5.30;;;1.80;;
7199;SDS011;3641;49.082;8.200;2023-04-24T00:32:11;3.80;;;1.80;;
7199;SDS011;3641;49.082;8.200;2023-04-24T00:34:38;5.47;;;1.70;;
7199;SDS011;3641;49.082;8.200;2023-04-24T00:37:04;4.57;;;1.63;;
7199;SDS011;3641;49.082;8.200;2023-04-24T00:39:31;3.08;;;1.70;;
7199;SDS011;3641;49.082;8.200;2023-04-24T00:41:59;3.20;;;1.52;;
7199;SDS011;3641;49.082;8.200;2023-04-24T00:44:26;3.95;;;1.52;;
7199;SDS011;3641;49.082;8.200;2023-04-24T00:46:53;6.10;;;1.50;;
7199;SDS011;3641;49.082;8.200;2023-04-24T00:49:21;4.20;;;1.50;;
7199;SDS011;3641;49.082;8.200;2023-04-24T00:51:48;5.50;;;1.45;;
7199;SDS011;3641;49.082;8.200;2023-04-24T00:54:16;3.38;;;1.58;;
7199;SDS011;3641;49.082;8.200;2023-04-24T00:56:42;5.55;;;1.73;;
7199;SDS011;3641;49.082;8.200;2023-04-24T00:59:11;2.38;;;1.20;;
7199;SDS011;3641;49.082;8.200;2023-04-24T01:01:38;5.03;;;1.60;;
7199;SDS011;3641;49.082;8.200;2023-04-24T01:04:07;4.78;;;1.45;;
7199;SDS011;3641;49.082;8.200;2023-04-24T01:06:34;2.95;;;1.35;;
7199;SDS011;3641;49.082;8.200;2023-04-24T01:09:04;5.40;;;1.88;;
7199;SDS011;3641;49.082;8.200;2023-04-24T01:11:32;3.78;;;1.30;;
7199;SDS011;3641;49.082;8.200;2023-04-24T01:13:59;2.33;;;1.30;;
7199;SDS011;3641;49.082;8.200;2023-04-24T01:16:28;3.70;;;1.30;;
7199;SDS011;3641;49.082;8.200;2023-04-24T01:18:55;4.05;;;1.45;;
7199;SDS011;3641;49.082;8.200;2023-04-24T01:21:21;4.13;;;1.48;;
7199;SDS011;3641;49.082;8.200;2023-04-24T01:23:55;4.20;;;1.70;;
7199;SDS011;3641;49.082;8.200;2023-04-24T01:26:22;3.83;;;1.83;;
7199;SDS011;3641;49.082;8.200;2023-04-24T01:28:50;5.43;;;1.50;;
7199;SDS011;3641;49.082;8.200;2023-04-24T01:31:17;3.88;;;1.70;;
7199;SDS011;3641;49.082;8.200;2023-04-24T01:33:43;3.90;;;1.58;;
7199;SDS011;3641;49.082;8.200;2023-04-24T01:36:10;4.80;;;1.60;;
7199;SDS011;3641;49.082;8.200;2023-04-24T01:38:37;3.78;;;1.42;;
7199;SDS011;3641;49.082;8.200;2023-04-24T01:41:05;3.78;;;1.27;;
7199;SDS011;3641;49.082;8.200;2023-04-24T01:43:32;2.67;;;1.30;;
7199;SDS011;3641;49.082;8.200;2023-04-24T01:45:58;3.00;;;1.40;;
7199;SDS011;3641;49.082;8.200;2023-04-24T01:48:24;3.63;;;1.40;;
7199;SDS011;3641;49.082;8.200;2023-04-24T01:50:51;3.83;;;1.35;;
7199;SDS011;3641;49.082;8.200;2023-04-24T01:53:18;2.10;;;1.38;;
7199;SDS011;3641;49.082;8.200;2023-04-24T01:55:44;3.15;;;1.80;;
7199;SDS011;3641;49.082;8.200;2023-04-24T01:58:12;2.83;;;1.30;;
7199;SDS011;3641;49.082;8.200;2023-04-24T02:00:39;3.58;;;1.67;;
7199;SDS011;3641;49.082;8.200;2023-04-24T02:03:06;3.58;;;1.40;;
7199;SDS011;3641;49.082;8.200;2023-04-24T02:05:33;4.80;;;1.52;;
7199;SDS011;3641;49.082;8.200;2023-04-24T02:07:59;4.18;;;1.45;;
7199;SDS011;3641;49.082;8.200;2023-04-24T02:10:25;4.75;;;1.67;;
7199;SDS011;3641;49.082;8.200;2023-04-24T02:12:52;3.75;;;1.38;;
7199;SDS011;3641;49.082;8.200;2023-04-24T02:15:20;2.72;;;1.40;;
7199;SDS011;3641;49.082;8.200;2023-04-24T02:17:46;3.10;;;1.52;;
7199;SDS011;3641;49.082;8.200;2023-04-24T02:20:13;3.85;;;1.35;;
7199;SDS011;3641;49.082;8.200;2023-04-24T02:22:39;3.10;;;1.65;;
7199;SDS011;3641;49.082;8.200;2023-04-24T02:25:06;3.53;;;1.33;;
7199;SDS011;3641;49.082;8.200;2023-04-24T02:27:33;5.15;;;1.50;;
7199;SDS011;3641;49.082;8.200;2023-04-24T02:29:59;3.13;;;1.48;;
7199;SDS011;3641;49.082;8.200;2023-04-24T02:32:27;4.85;;;2.28;;
7199;SDS011;3641;49.082;8.200;2023-04-24T02:34:55;4.38;;;1.50;;
7199;SDS011;3641;49.082;8.200;2023-04-24T02:37:22;3.85;;;2.22;;
7199;SDS011;3641;49.082;8.200;2023-04-24T02:39:48;6.70;;;2.30;;
7199;SDS011;3641;49.082;8.200;2023-04-24T02:42:15;5.05;;;2.05;;
7199;SDS011;3641;49.082;8.200;2023-04-24T02:44:41;5.10;;;2.10;;
7199;SDS011;3641;49.082;8.200;2023-04-24T02:47:08;5.38;;;2.20;;
7199;SDS011;3641;49.082;8.200;2023-04-24T02:49:36;6.30;;;2.40;;
7199;SDS011;3641;49.082;8.200;2023-04-24T02:52:02;6.35;;;2.40;;
7199;SDS011;3641;49.082;8.200;2023-04-24T02:54:28;5.25;;;2.53;;
7199;SDS011;3641;49.082;8.200;2023-04-24T02:56:55;4.57;;;2.67;;
7199;SDS011;3641;49.082;8.200;2023-04-24T02:59:22;6.85;;;2.78;;
7199;SDS011;3641;49.082;8.200;2023-04-24T03:01:48;5.35;;;2.50;;
7199;SDS011;3641;49.082;8.200;2023-04-24T03:04:15;5.05;;;2.38;;
7199;SDS011;3641;49.082;8.200;2023-04-24T03:06:42;5.05;;;2.40;;
7199;SDS011;3641;49.082;8.200;2023-04-24T03:09:09;3.30;;;2.15;;
7199;SDS011;3641;49.082;8.200;2023-04-24T03:11:35;4.68;;;2.35;;
7199;SDS011;3641;49.082;8.200;2023-04-24T03:14:02;4.13;;;2.40;;
7199;SDS011;3641;49.082;8.200;2023-04-24T03:16:28;5.97;;;2.50;;
7199;SDS011;3641;49.082;8.200;2023-04-24T03:18:55;4.63;;;2.58;;
7199;SDS011;3641;49.082;8.200;2023-04-24T03:21:22;4.20;;;2.40;;
7199;SDS011;3641;49.082;8.200;2023-04-24T03:23:50;4.28;;;2.38;;
7199;SDS011;3641;49.082;8.200;2023-04-24T03:26:16;4.03;;;2.28;;
7199;SDS011;3641;49.082;8.200;2023-04-24T03:28:42;6.22;;;2.92;;
7199;SDS011;3641;49.082;8.200;2023-04-24T03:31:09;4.10;;;1.98;;
7199;SDS011;3641;49.082;8.200;2023-04-24T03:33:35;4.78;;;2.70;;
7199;SDS011;3641;49.082;8.200;2023-04-24T03:36:02;5.95;;;2.60;;
7199;SDS011;3641;49.082;8.200;2023-04-24T03:38:29;6.75;;;2.40;;
7199;SDS011;3641;49.082;8.200;2023-04-24T03:40:56;5.50;;;2.30;;
7199;SDS011;3641;49.082;8.200;2023-04-24T03:43:23;4.78;;;2.20;;
7199;SDS011;3641;49.082;8.200;2023-04-24T03:45:49;4.68;;;2.67;;
7199;SDS011;3641;49.082;8.200;2023-04-24T03:48:16;2.55;;;1.58;;
7199;SDS011;3641;49.082;8.200;2023-04-24T03:50:42;2.92;;;1.70;;
7199;SDS011;3641;49.082;8.200;2023-04-24T03:53:09;6.50;;;1.88;;
7199;SDS011;3641;49.082;8.200;2023-04-24T03:55:35;3.83;;;2.13;;
7199;SDS011;3641;49.082;8.200;2023-04-24T03:58:03;3.75;;;2.00;;
7199;SDS011;3641;49.082;8.200;2023-04-24T04:00:29;4.90;;;2.15;;
7199;SDS011;3641;49.082;8.200;2023-04-24T04:02:58;4.53;;;2.10;;
7199;SDS011;3641;49.082;8.200;2023-04-24T04:05:24;3.45;;;2.10;;
7199;SDS011;3641;49.082;8.200;2023-04-24T04:07:51;3.17;;;2.00;;
7199;SDS011;3641;49.082;8.200;2023-04-24T04:10:17;4.20;;;2.50;;
7199;SDS011;3641;49.082;8.200;2023-04-24T04:12:44;6.55;;;2.50;;
7199;SDS011;3641;49.082;8.200;2023-04-24T04:15:11;4.32;;;2.40;;
7199;SDS011;3641;49.082;8.200;2023-04-24T04:17:38;3.33;;;2.20;;
7199;SDS011;3641;49.082;8.200;2023-04-24T04:20:05;5.07;;;2.47;;
7199;SDS011;3641;49.082;8.200;2023-04-24T04:22:34;5.18;;;2.50;;
7199;SDS011;3641;49.082;8.200;2023-04-24T04:25:01;4.85;;;2.70;;
7199;SDS011;3641;49.082;8.200;2023-04-24T04:27:28;4.70;;;2.90;;
7199;SDS011;3641;49.082;8.200;2023-04-24T04:29:57;3.25;;;2.53;;
7199;SDS011;3641;49.082;8.200;2023-04-24T04:32:25;4.13;;;2.60;;
7199;SDS011;3641;49.082;8.200;2023-04-24T04:34:52;4.88;;;2.63;;
7199;SDS011;3641;49.082;8.200;2023-04-24T04:37:19;5.20;;;2.90;;
7199;SDS011;3641;49.082;8.200;2023-04-24T04:39:45;4.85;;;2.58;;
7199;SDS011;3641;49.082;8.200;2023-04-24T04:42:12;4.30;;;3.10;;
7199;SDS011;3641;49.082;8.200;2023-04-24T04:44:38;5.53;;;3.22;;
7199;SDS011;3641;49.082;8.200;2023-04-24T04:47:05;10.07;;;3.55;;
7199;SDS011;3641;49.082;8.200;2023-04-24T04:49:33;4.45;;;2.90;;
7199;SDS011;3641;49.082;8.200;2023-04-24T04:52:00;6.40;;;3.38;;
7199;SDS011;3641;49.082;8.200;2023-04-24T04:54:27;6.28;;;3.47;;
7199;SDS011;3641;49.082;8.200;2023-04-24T04:56:53;7.32;;;3.25;;
7199;SDS011;3641;49.082;8.200;2023-04-24T04:59:20;5.68;;;3.25;;
7199;SDS011;3641;49.082;8.200;2023-04-24T05:01:47;5.13;;;3.05;;
7199;SDS011;3641;49.082;8.200;2023-04-24T05:04:13;6.10;;;3.17;;
7199;SDS011;3641;49.082;8.200;2023-04-24T05:06:41;5.40;;;3.35;;
7199;SDS011;3641;49.082;8.200;2023-04-24T05:09:07;5.18;;;3.38;;
7199;SDS011;3641;49.082;8.200;2023-04-24T05:11:34;8.77;;;3.55;;
7199;SDS011;3641;49.082;8.200;2023-04-24T05:14:00;5.93;;;3.78;;
7199;SDS011;3641;49.082;8.200;2023-04-24T05:16:27;7.35;;;3.70;;
7199;SDS011;3641;49.082;8.200;2023-04-24T05:18:53;7.35;;;3.63;;
7199;SDS011;3641;49.082;8.200;2023-04-24T05:21:19;6.53;;;3.60;;
7199;SDS011;3641;49.082;8.200;2023-04-24T05:23:47;6.55;;;3.83;;
7199;SDS011;3641;49.082;8.200;2023-04-24T05:26:14;9.00;;;4.38;;
7199;SDS011;3641;49.082;8.200;2023-04-24T05:28:40;6.38;;;3.95;;
7199;SDS011;3641;49.082;8.200;2023-04-24T05:31:07;6.85;;;4.05;;
7199;SDS011;3641;49.082;8.200;2023-04-24T05:33:33;6.30;;;4.47;;
7199;SDS011;3641;49.082;8.200;2023-04-24T05:36:00;6.72;;;4.38;;
7199;SDS011;3641;49.082;8.200;2023-04-24T05:38:26;7.75;;;4.22;;
7199;SDS011;3641;49.082;8.200;2023-04-24T05:40:54;6.65;;;4.20;;
7199;SDS011;3641;49.082;8.200;2023-04-24T05:43:20;7.68;;;4.35;;
7199;SDS011;3641;49.082;8.200;2023-04-24T05:45:47;8.38;;;4.55;;
7199;SDS011;3641;49.082;8.200;2023-04-24T05:48:13;6.10;;;3.50;;
7199;SDS011;3641;49.082;8.200;2023-04-24T05:50:39;6.25;;;3.78;;
7199;SDS011;3641;49.082;8.200;2023-04-24T05:53:06;6.43;;;4.00;;
7199;SDS011;3641;49.082;8.200;2023-04-24T05:55:32;6.05;;;3.17;;
7199;SDS011;3641;49.082;8.200;2023-04-24T05:58:00;5.22;;;3.10;;
7199;SDS011;3641;49.082;8.200;2023-04-24T06:00:27;4.75;;;3.30;;
7199;SDS011;3641;49.082;8.200;2023-04-24T06:02:54;4.72;;;3.25;;
7199;SDS011;3641;49.082;8.200;2023-04-24T06:05:20;5.55;;;3.10;;
7199;SDS011;3641;49.082;8.200;2023-04-24T06:07:47;5.45;;;2.97;;
7199;SDS011;3641;49.082;8.200;2023-04-24T06:10:13;5.85;;;3.00;;
7199;SDS011;3641;49.082;8.200;2023-04-24T06:12:40;6.28;;;3.60;;
7199;SDS011;3641;49.082;8.200;2023-04-24T06:15:08;4.53;;;3.05;;
7199;SDS011;3641;49.082;8.200;2023-04-24T06:17:35;6.55;;;3.63;;
7199;SDS011;3641;49.082;8.200;2023-04-24T06:20:02;7.65;;;3.22;;
7199;SDS011;3641;49.082;8.200;2023-04-24T06:22:31;3.97;;;2.85;;
7199;SDS011;3641;49.082;8.200;2023-04-24T06:24:57;4.57;;;3.10;;
7199;SDS011;3641;49.082;8.200;2023-04-24T06:27:27;4.95;;;3.13;;
7199;SDS011;3641;49.082;8.200;2023-04-24T06:29:54;4.43;;;2.72;;
7199;SDS011;3641;49.082;8.200;2023-04-24T06:32:22;3.95;;;2.95;;
7199;SDS011;3641;49.082;8.200;2023-04-24T06:34:49;6.63;;;3.13;;
7199;SDS011;3641;49.082;8.200;2023-04-24T06:37:17;5.90;;;2.65;;
7199;SDS011;3641;49.082;8.200;2023-04-24T06:39:44;4.75;;;3.03;;
7199;SDS011;3641;49.082;8.200;2023-04-24T06:42:11;5.05;;;3.40;;
7199;SDS011;3641;49.082;8.200;2023-04-24T06:44:37;6.20;;;3.33;;
7199;SDS011;3641;49.082;8.200;2023-04-24T06:47:05;4.95;;;2.75;;
7199;SDS011;3641;49.082;8.200;2023-04-24T06:49:33;4.78;;;2.85;;
7199;SDS011;3641;49.082;8.200;2023-04-24T06:52:00;6.43;;;3.08;;
7199;SDS011;3641;49.082;8.200;2023-04-24T06:54:26;4.43;;;2.90;;
7199;SDS011;3641;49.082;8.200;2023-04-24T06:56:53;4.72;;;2.70;;
7199;SDS011;3641;49.082;8.200;2023-04-24T06:59:20;4.93;;;2.30;;
7199;SDS011;3641;49.082;8.200;2023-04-24T07:01:46;4.57;;;2.20;;
7199;SDS011;3641;49.082;8.200;2023-04-24T07:04:13;3.63;;;1.95;;
7199;SDS011;3641;49.082;8.200;2023-04-24T07:06:41;4.30;;;2.00;;
7199;SDS011;3641;49.082;8.200;2023-04-24T07:09:07;3.25;;;1.90;;
7199;SDS011;3641;49.082;8.200;2023-04-24T07:11:34;3.60;;;1.73;;
7199;SDS011;3641;49.082;8.200;2023-04-24T07:14:07;3.72;;;1.83;;
7199;SDS011;3641;49.082;8.200;2023-04-24T07:16:34;3.15;;;2.03;;
7199;SDS011;3641;49.082;8.200;2023-04-24T07:19:01;3.28;;;1.70;;
7199;SDS011;3641;49.082;8.200;2023-04-24T07:21:27;3.42;;;1.88;;
7199;SDS011;3641;49.082;8.200;2023-04-24T07:23:57;6.10;;;2.20;;
7199;SDS011;3641;49.082;8.200;2023-04-24T07:26:23;3.05;;;1.73;;
7199;SDS011;3641;49.082;8.200;2023-04-24T07:28:51;5.35;;;1.80;;
7199;SDS011;3641;49.082;8.200;2023-04-24T07:31:17;5.22;;;2.03;;
7199;SDS011;3641;49.082;8.200;2023-04-24T07:33:44;3.47;;;1.52;;
7199;SDS011;3641;49.082;8.200;2023-04-24T07:36:10;3.35;;;1.73;;
7199;SDS011;3641;49.082;8.200;2023-04-24T07:38:41;2.33;;;1.63;;
7199;SDS011;3641;49.082;8.200;2023-04-24T07:41:09;4.20;;;1.70;;
7199;SDS011;3641;49.082;8.200;2023-04-24T07:43:36;5.15;;;1.80;;
7199;SDS011;3641;49.082;8.200;2023-04-24T07:46:02;4.90;;;2.00;;
7199;SDS011;3641;49.082;8.200;2023-04-24T07:48:29;4.57;;;2.10;;
7199;SDS011;3641;49.082;8.200;2023-04-24T07:50:55;6.03;;;2.30;;
7199;SDS011;3641;49.082;8.200;2023-04-24T07:53:22;2.85;;;1.83;;
7199;SDS011;3641;49.082;8.200;2023-04-24T07:55:48;2.55;;;1.80;;
7199;SDS011;3641;49.082;8.200;2023-04-24T07:58:16;4.55;;;1.75;;
7199;SDS011;3641;49.082;8.200;2023-04-24T08:00:43;4.55;;;1.60;;
7199;SDS011;3641;49.082;8.200;2023-04-24T08:03:09;6.68;;;1.63;;
7199;SDS011;3641;49.082;8.200;2023-04-24T08:05:36;2.80;;;1.52;;
7199;SDS011;3641;49.082;8.200;2023-04-24T08:08:03;5.50;;;1.83;;
7199;SDS011;3641;49.082;8.200;2023-04-24T08:10:29;3.00;;;1.90;;
7199;SDS011;3641;49.082;8.200;2023-04-24T08:12:56;2.25;;;1.50;;
7199;SDS011;3641;49.082;8.200;2023-04-24T08:15:24;1.33;;;1.20;;
7199;SDS011;3641;49.082;8.200;2023-04-24T08:17:50;4.97;;;1.55;;
7199;SDS011;3641;49.082;8.200;2023-04-24T08:20:17;5.82;;;1.60;;
7199;SDS011;3641;49.082;8.200;2023-04-24T08:22:44;5.57;;;2.10;;
7199;SDS011;3641;49.082;8.200;2023-04-24T08:25:12;6.25;;;1.35;;
7199;SDS011;3641;49.082;8.200;2023-04-24T08:27:38;4.03;;;1.48;;
7199;SDS011;3641;49.082;8.200;2023-04-24T08:30:05;2.72;;;1.50;;
7199;SDS011;3641;49.082;8.200;2023-04-24T08:32:34;2.80;;;1.80;;
7199;SDS011;3641;49.082;8.200;2023-04-24T08:35:00;2.63;;;1.50;;
7199;SDS011;3641;49.082;8.200;2023-04-24T08:37:27;4.70;;;1.73;;
7199;SDS011;3641;49.082;8.200;2023-04-24T08:39:53;2.58;;;1.70;;
7199;SDS011;3641;49.082;8.200;2023-04-24T08:42:20;4.13;;;1.77;;
7199;SDS011;3641;49.082;8.200;2023-04-24T08:44:48;5.55;;;1.80;;
7199;SDS011;3641;49.082;8.200;2023-04-24T08:47:16;5.05;;;1.67;;
7199;SDS011;3641;49.082;8.200;2023-04-24T08:49:43;5.35;;;1.80;;
7199;SDS011;3641;49.082;8.200;2023-04-24T08:52:11;5.38;;;2.03;;
7199;SDS011;3641;49.082;8.200;2023-04-24T08:54:38;5.45;;;1.90;;
7199;SDS011;3641;49.082;8.200;2023-04-24T08:57:06;3.63;;;2.03;;
7199;SDS011;3641;49.082;8.200;2023-04-24T08:59:34;4.43;;;2.28;;
7199;SDS011;3641;49.082;8.200;2023-04-24T09:02:01;3.30;;;2.08;;
7199;SDS011;3641;49.082;8.200;2023-04-24T09:04:29;6.00;;;2.10;;
7199;SDS011;3641;49.082;8.200;2023-04-24T09:06:58;5.10;;;2.30;;
7199;SDS011;3641;49.082;8.200;2023-04-24T09:09:24;4.68;;;1.98;;
7199;SDS011;3641;49.082;8.200;2023-04-24T09:11:51;6.47;;;2.53;;
7199;SDS011;3641;49.082;8.200;2023-04-24T09:14:20;4.28;;;2.60;;
7199;SDS011;3641;49.082;8.200;2023-04-24T09:16:48;6.93;;;2.40;;
7199;SDS011;3641;49.082;8.200;2023-04-24T09:19:15;5.95;;;2.42;;
7199;SDS011;3641;49.082;8.200;2023-04-24T09:21:41;4.57;;;2.42;;
7199;SDS011;3641;49.082;8.200;2023-04-24T09:24:15;5.63;;;2.70;;
7199;SDS011;3641;49.082;8.200;2023-04-24T09:26:45;5.10;;;2.50;;
7199;SDS011;3641;49.082;8.200;2023-04-24T09:29:14;4.97;;;2.70;;
7199;SDS011;3641;49.082;8.200;2023-04-24T09:31:41;6.03;;;3.40;;
7199;SDS011;3641;49.082;8.200;2023-04-24T09:34:08;6.50;;;2.78;;
7199;SDS011;3641;49.082;8.200;2023-04-24T09:36:36;6.20;;;3.15;;
7199;SDS011;3641;49.082;8.200;2023-04-24T09:39:04;5.05;;;2.67;;
7199;SDS011;3641;49.082;8.200;2023-04-24T09:41:34;5.93;;;3.00;;
7199;SDS011;3641;49.082;8.200;2023-04-24T09:44:10;5.70;;;2.95;;
7199;SDS011;3641;49.082;8.200;2023-04-24T09:46:39;6.78;;;3.00;;
7199;SDS011;3641;49.082;8.200;2023-04-24T09:49:09;4.90;;;2.80;;
7199;SDS011;3641;49.082;8.200;2023-04-24T09:51:37;6.05;;;3.13;;
7199;SDS011;3641;49.082;8.200;2023-04-24T09:54:05;5.88;;;3.00;;
7199;SDS011;3641;49.082;8.200;2023-04-24T09:56:43;9.23;;;3.15;;
7199;SDS011;3641;49.082;8.200;2023-04-24T09:59:11;5.50;;;3.13;;
7199;SDS011;3641;49.082;8.200;2023-04-24T10:01:38;7.45;;;2.97;;
7199;SDS011;3641;49.082;8.200;2023-04-24T10:04:14;5.57;;;2.95;;
7199;SDS011;3641;49.082;8.200;2023-04-24T10:06:41;3.70;;;2.70;;
7199;SDS011;3641;49.082;8.200;2023-04-24T10:09:08;5.55;;;3.00;;
7199;SDS011;3641;49.082;8.200;2023-04-24T10:11:36;5.82;;;3.03;;
7199;SDS011;3641;49.082;8.200;2023-04-24T10:14:04;6.00;;;3.00;;
7199;SDS011;3641;49.082;8.200;2023-04-24T10:16:32;6.55;;;3.30;;
7199;SDS011;3641;49.082;8.200;2023-04-24T10:18:58;6.93;;;3.00;;
7199;SDS011;3641;49.082;8.200;2023-04-24T10:21:26;5.03;;;3.20;;
7199;SDS011;3641;49.082;8.200;2023-04-24T10:23:52;4.88;;;3.28;;
7199;SDS011;3641;49.082;8.200;2023-04-24T10:26:20;6.05;;;3.00;;
7199;SDS011;3641;49.082;8.200;2023-04-24T10:28:48;6.10;;;3.10;;
7199;SDS011;3641;49.082;8.200;2023-04-24T10:31:17;4.88;;;2.92;;
7199;SDS011;3641;49.082;8.200;2023-04-24T10:33:44;5.63;;;3.05;;
7199;SDS011;3641;49.082;8.200;2023-04-24T10:36:12;5.90;;;2.92;;
7199;SDS011;3641;49.082;8.200;2023-04-24T10:38:41;4.80;;;2.90;;
7199;SDS011;3641;49.082;8.200;2023-04-24T10:41:12;7.30;;;3.08;;
7199;SDS011;3641;49.082;8.200;2023-04-24T10:43:41;9.32;;;3.83;;
7199;SDS011;3641;49.082;8.200;2023-04-24T10:46:08;7.38;;;3.63;;
7199;SDS011;3641;49.082;8.200;2023-04-24T10:48:37;6.38;;;2.85;;
7199;SDS011;3641;49.082;8.200;2023-04-24T10:51:10;6.25;;;2.97;;
7199;SDS011;3641;49.082;8.200;2023-04-24T10:53:39;5.38;;;2.63;;
7199;SDS011;3641;49.082;8.200;2023-04-24T10:56:06;5.53;;;3.10;;
7199;SDS011;3641;49.082;8.200;2023-04-24T10:58:38;4.88;;;3.00;;
7199;SDS011;3641;49.082;8.200;2023-04-24T11:01:06;5.45;;;2.90;;
7199;SDS011;3641;49.082;8.200;2023-04-24T11:03:33;8.98;;;3.00;;
7199;SDS011;3641;49.082;8.200;2023-04-24T11:06:02;7.22;;;3.28;;
7199;SDS011;3641;49.082;8.200;2023-04-24T11:08:31;8.25;;;3.47;;
7199;SDS011;3641;49.082;8.200;2023-04-24T11:11:03;7.82;;;3.47;;
7199;SDS011;3641;49.082;8.200;2023-04-24T11:16:32;8.05;;;4.40;;
7199;SDS011;3641;49.082;8.200;2023-04-24T11:19:01;6.90;;;4.30;;
7199;SDS011;3641;49.082;8.200;2023-04-24T11:21:38;6.97;;;4.07;;
7199;SDS011;3641;49.082;8.200;2023-04-24T11:24:21;6.93;;;4.00;;
7199;SDS011;3641;49.082;8.200;2023-04-24T11:26:50;7.78;;;4.28;;
7199;SDS011;3641;49.082;8.200;2023-04-24T11:29:17;6.00;;;3.83;;
7199;SDS011;3641;49.082;8.200;2023-04-24T11:31:45;6.82;;;4.30;;
7199;SDS011;3641;49.082;8.200;2023-04-24T11:34:14;8.35;;;3.90;;
7199;SDS011;3641;49.082;8.200;2023-04-24T11:36:44;9.32;;;3.53;;
7199;SDS011;3641;49.082;8.200;2023-04-24T11:39:11;8.73;;;3.50;;
7199;SDS011;3641;49.082;8.200;2023-04-24T11:41:37;6.55;;;3.33;;
7199;SDS011;3641;49.082;8.200;2023-04-24T11:44:06;6.55;;;3.70;;
7199;SDS011;3641;49.082;8.200;2023-04-24T11:46:34;7.20;;;3.90;;
7199;SDS011;3641;49.082;8.200;2023-04-24T11:49:02;6.05;;;3.25;;
7199;SDS011;3641;49.082;8.200;2023-04-24T11:51:29;6.28;;;3.42;;
7199;SDS011;3641;49.082;8.200;2023-04-24T11:53:58;6.70;;;3.45;;
7199;SDS011;3641;49.082;8.200;2023-04-24T11:56:24;5.85;;;3.38;;
7199;SDS011;3641;49.082;8.200;2023-04-24T11:58:51;7.20;;;3.45;;
7199;SDS011;3641;49.082;8.200;2023-04-24T12:01:18;6.45;;;3.42;;
7199;SDS011;3641;49.082;8.200;2023-04-24T12:03:47;6.28;;;3.50;;
7199;SDS011;3641;49.082;8.200;2023-04-24T12:06:14;6.97;;;3.58;;
7199;SDS011;3641;49.082;8.200;2023-04-24T12:08:40;5.95;;;3.40;;
7199;SDS011;3641;49.082;8.200;2023-04-24T12:11:08;7.68;;;3.85;;
7199;SDS011;3641;49.082;8.200;2023-04-24T12:13:34;4.55;;;3.17;;
7199;SDS011;3641;49.082;8.200;2023-04-24T12:16:02;6.03;;;3.63;;
7199;SDS011;3641;49.082;8.200;2023-04-24T12:18:30;6.13;;;3.70;;
7199;SDS011;3641;49.082;8.200;2023-04-24T12:23:42;7.00;;;3.50;;
7199;SDS011;3641;49.082;8.200;2023-04-24T12:26:10;6.60;;;3.58;;
7199;SDS011;3641;49.082;8.200;2023-04-24T12:28:37;5.03;;;3.03;;
7199;SDS011;3641;49.082;8.200;2023-04-24T12:31:05;5.90;;;3.20;;
7199;SDS011;3641;49.082;8.200;2023-04-24T12:33:33;7.05;;;3.50;;
7199;SDS011;3641;49.082;8.200;2023-04-24T12:36:00;6.22;;;3.17;;
7199;SDS011;3641;49.082;8.200;2023-04-24T12:38:27;8.60;;;3.30;;
7199;SDS011;3641;49.082;8.200;2023-04-24T12:41:01;6.85;;;3.78;;
7199;SDS011;3641;49.082;8.200;2023-04-24T12:43:31;6.72;;;3.63;;
7199;SDS011;3641;49.082;8.200;2023-04-24T12:45:58;5.43;;;3.03;;
7199;SDS011;3641;49.082;8.200;2023-04-24T12:48:25;6.13;;;3.35;;
7199;SDS011;3641;49.082;8.200;2023-04-24T12:50:51;6.43;;;3.40;;
7199;SDS011;3641;49.082;8.200;2023-04-24T12:53:17;4.90;;;2.97;;
7199;SDS011;3641;49.082;8.200;2023-04-24T12:55:44;6.68;;;2.95;;
7199;SDS011;3641;49.082;8.200;2023-04-24T12:58:12;6.60;;;2.90;;
7199;SDS011;3641;49.082;8.200;2023-04-24T13:00:40;6.18;;;3.00;;
7199;SDS011;3641;49.082;8.200;2023-04-24T13:03:08;5.05;;;2.70;;
7199;SDS011;3641;49.082;8.200;2023-04-24T13:05:34;5.97;;;2.60;;
7199;SDS011;3641;49.082;8.200;2023-04-24T13:08:01;5.10;;;2.63;;
7199;SDS011;3641;49.082;8.200;2023-04-24T13:10:27;6.63;;;2.70;;
7199;SDS011;3641;49.082;8.200;2023-04-24T13:12:54;6.93;;;2.75;;
7199;SDS011;3641;49.082;8.200;2023-04-24T13:15:20;5.72;;;2.97;;
7199;SDS011;3641;49.082;8.200;2023-04-24T13:17:48;4.30;;;2.75;;
7199;SDS011;3641;49.082;8.200;2023-04-24T13:20:15;4.93;;;2.97;;
7199;SDS011;3641;49.082;8.200;2023-04-24T13:22:42;4.93;;;2.63;;
7199;SDS011;3641;49.082;8.200;2023-04-24T13:25:08;4.65;;;2.75;;
7199;SDS011;3641;49.082;8.200;2023-04-24T13:27:35;5.07;;;2.80;;
7199;SDS011;3641;49.082;8.200;2023-04-24T13:30:02;6.32;;;2.72;;
7199;SDS011;3641;49.082;8.200;2023-04-24T13:32:29;10.02;;;3.38;;
7199;SDS011;3641;49.082;8.200;2023-04-24T13:34:57;10.05;;;4.72;;
7199;SDS011;3641;49.082;8.200;2023-04-24T13:37:23;5.18;;;2.90;;
7199;SDS011;3641;49.082;8.200;2023-04-24T13:39:50;5.07;;;3.17;;
7199;SDS011;3641;49.082;8.200;2023-04-24T13:42:16;5.82;;;3.15;;
7199;SDS011;3641;49.082;8.200;2023-04-24T13:44:43;5.38;;;3.22;;
7199;SDS011;3641;49.082;8.200;2023-04-24T13:47:10;9.00;;;3.33;;
7199;SDS011;3641;49.082;8.200;2023-04-24T13:49:36;8.88;;;3.17;;
7199;SDS011;3641;49.082;8.200;2023-04-24T13:52:04;8.80;;;3.75;;
7199;SDS011;3641;49.082;8.200;2023-04-24T13:54:30;6.82;;;2.95;;
7199;SDS011;3641;49.082;8.200;2023-04-24T13:56:57;6.90;;;2.83;;
7199;SDS011;3641;49.082;8.200;2023-04-24T13:59:25;6.95;;;2.85;;
7199;SDS011;3641;49.082;8.200;2023-04-24T14:01:51;8.27;;;3.17;;
7199;SDS011;3641;49.082;8.200;2023-04-24T14:04:18;3.92;;;2.65;;
7199;SDS011;3641;49.082;8.200;2023-04-24T14:06:44;4.07;;;2.42;;
7199;SDS011;3641;49.082;8.200;2023-04-24T14:09:12;4.82;;;3.13;;
7199;SDS011;3641;49.082;8.200;2023-04-24T14:11:39;8.25;;;3.20;;
7199;SDS011;3641;49.082;8.200;2023-04-24T14:14:06;6.03;;;2.67;;
7199;SDS011;3641;49.082;8.200;2023-04-24T14:16:33;8.45;;;3.42;;
7199;SDS011;3641;49.082;8.200;2023-04-24T14:19:00;5.30;;;2.83;;
7199;SDS011;3641;49.082;8.200;2023-04-24T14:21:26;5.40;;;2.80;;
7199;SDS011;3641;49.082;8.200;2023-04-24T14:23:53;6.18;;;3.38;;
7199;SDS011;3641;49.082;8.200;2023-04-24T14:26:21;11.40;;;3.88;;
7199;SDS011;3641;49.082;8.200;2023-04-24T14:28:47;11.50;;;3.60;;
7199;SDS011;3641;49.082;8.200;2023-04-24T14:31:14;6.40;;;3.15;;
7199;SDS011;3641;49.082;8.200;2023-04-24T14:33:40;6.20;;;3.03;;
7199;SDS011;3641;49.082;8.200;2023-04-24T14:36:07;6.45;;;3.63;;
7199;SDS011;3641;49.082;8.200;2023-04-24T14:38:33;5.47;;;3.30;;
7199;SDS011;3641;49.082;8.200;2023-04-24T14:41:00;6.40;;;3.33;;
7199;SDS011;3641;49.082;8.200;2023-04-24T14:43:33;7.20;;;3.28;;
7199;SDS011;3641;49.082;8.200;2023-04-24T14:46:00;6.93;;;3.70;;
7199;SDS011;3641;49.082;8.200;2023-04-24T14:48:27;7.13;;;2.97;;
7199;SDS011;3641;49.082;8.200;2023-04-24T14:50:53;7.00;;;3.55;;
7199;SDS011;3641;49.082;8.200;2023-04-24T14:53:20;7.47;;;3.47;;
7199;SDS011;3641;49.082;8.200;2023-04-24T14:55:46;5.45;;;3.20;;
7199;SDS011;3641;49.082;8.200;2023-04-24T14:58:13;6.07;;;3.30;;
7199;SDS011;3641;49.082;8.200;2023-04-24T15:00:41;5.70;;;3.42;;
7199;SDS011;3641;49.082;8.200;2023-04-24T15:03:07;9.00;;;3.05;;
7199;SDS011;3641;49.082;8.200;2023-04-24T15:05:34;6.13;;;3.88;;
7199;SDS011;3641;49.082;8.200;2023-04-24T15:08:00;4.53;;;2.88;;
7199;SDS011;3641;49.082;8.200;2023-04-24T15:10:27;9.63;;;3.53;;
7199;SDS011;3641;49.082;8.200;2023-04-24T15:12:54;8.93;;;4.35;;
7199;SDS011;3641;49.082;8.200;2023-04-24T15:15:21;8.30;;;3.75;;
7199;SDS011;3641;49.082;8.200;2023-04-24T15:17:48;6.72;;;3.72;;
7199;SDS011;3641;49.082;8.200;2023-04-24T15:20:15;6.85;;;4.05;;